Terminal Aerodrome Forecast
Issued by NWS Sioux Falls, SD

Home | Current Version | Previous Version | Text Only | Print | Product List | Glossary On
Versions: 1 2 3 4 5 6 7 8 9 10 11 12 13 14 15
000
FTUS43 KFSD 130520
TAFHON
TAF
KHON 130520Z 1306/1406 29013KT P6SM BKN200 WS010/31045KT
     FM130900 31018G27KT P6SM BKN140
     FM131700 33025G35KT P6SM BKN025
     FM132200 33021G31KT P6SM BKN035
     FM140000 34015G24KT P6SM BKN030
     FM140300 33011KT P6SM BKN035=

USA.gov is the U.S. government's official web portal to all federal, state and local government web resources and services.